sensor_id;sensor_type;location;lat;lon;timestamp;pressure;altitude;pressure_sealevel;temperature;humidity
22930;BME280;11630;42.660;23.292;2022-10-16T00:00:26;68632.00;;;9.93;100.00
22930;BME280;11630;42.660;23.292;2022-10-16T00:02:57;68641.25;;;10.02;100.00
22930;BME280;11630;42.660;23.292;2022-10-16T00:05:28;68607.83;;;9.78;100.00
22930;BME280;11630;42.660;23.292;2022-10-16T00:07:58;68614.87;;;9.79;100.00
22930;BME280;11630;42.660;23.292;2022-10-16T00:10:29;68599.91;;;9.64;100.00
22930;BME280;11630;42.660;23.292;2022-10-16T00:13:00;68580.38;;;9.51;100.00
22930;BME280;11630;42.660;23.292;2022-10-16T00:15:30;68572.47;;;9.40;100.00
22930;BME280;11630;42.660;23.292;2022-10-16T00:18:01;68559.17;;;9.27;100.00
22930;BME280;11630;42.660;23.292;2022-10-16T00:20:33;68572.76;;;9.39;100.00
22930;BME280;11630;42.660;23.292;2022-10-16T00:23:05;68567.31;;;9.34;100.00
22930;BME280;11630;42.660;23.292;2022-10-16T00:25:35;68581.43;;;9.45;100.00
22930;BME280;11630;42.660;23.292;2022-10-16T00:28:06;68579.55;;;9.49;100.00
22930;BME280;11630;42.660;23.292;2022-10-16T00:30:37;68571.67;;;9.38;100.00
22930;BME280;11630;42.660;23.292;2022-10-16T00:33:08;68577.92;;;9.45;100.00
22930;BME280;11630;42.660;23.292;2022-10-16T00:35:39;68587.70;;;9.54;100.00
22930;BME280;11630;42.660;23.292;2022-10-16T00:38:10;68595.58;;;9.63;100.00
22930;BME280;11630;42.660;23.292;2022-10-16T00:40:40;68592.31;;;9.60;100.00
22930;BME280;11630;42.660;23.292;2022-10-16T00:46:08;68558.35;;;9.27;100.00
22930;BME280;11630;42.660;23.292;2022-10-16T00:48:37;68564.89;;;9.36;100.00
22930;BME280;11630;42.660;23.292;2022-10-16T00:51:08;68578.45;;;9.46;100.00
22930;BME280;11630;42.660;23.292;2022-10-16T00:53:39;68582.81;;;9.47;100.00
22930;BME280;11630;42.660;23.292;2022-10-16T00:56:10;68592.60;;;9.61;100.00
22930;BME280;11630;42.660;23.292;2022-10-16T00:58:41;68587.70;;;9.57;100.00
22930;BME280;11630;42.660;23.292;2022-10-16T01:01:12;68599.12;;;9.65;100.00
22930;BME280;11630;42.660;23.292;2022-10-16T01:03:42;68592.87;;;9.60;100.00
22930;BME280;11630;42.660;23.292;2022-10-16T01:08:50;68580.09;;;9.47;100.00
22930;BME280;11630;42.660;23.292;2022-10-16T01:11:26;68574.95;;;9.46;100.00
22930;BME280;11630;42.660;23.292;2022-10-16T01:13:58;68583.91;;;9.51;100.00
22930;BME280;11630;42.660;23.292;2022-10-16T01:16:32;68583.61;;;9.49;100.00
22930;BME280;11630;42.660;23.292;2022-10-16T01:21:46;68577.10;;;9.48;100.00
22930;BME280;11630;42.660;23.292;2022-10-16T01:24:37;68568.13;;;9.36;100.00
22930;BME280;11630;42.660;23.292;2022-10-16T01:29:53;68571.12;;;9.40;100.00
22930;BME280;11630;42.660;23.292;2022-10-16T01:38:00;68568.40;;;9.35;100.00
22930;BME280;11630;42.660;23.292;2022-10-16T01:40:31;68577.92;;;9.45;100.00
22930;BME280;11630;42.660;23.292;2022-10-16T01:43:05;68575.73;;;9.43;100.00
22930;BME280;11630;42.660;23.292;2022-10-16T01:45:35;68548.59;;;9.23;100.00
22930;BME280;11630;42.660;23.292;2022-10-16T01:48:06;68527.66;;;8.98;100.00
22930;BME280;11630;42.660;23.292;2022-10-16T01:50:39;68490.19;;;8.64;100.00
22930;BME280;11630;42.660;23.292;2022-10-16T01:53:13;68482.03;;;8.59;100.00
22930;BME280;11630;42.660;23.292;2022-10-16T01:55:46;68493.43;;;8.67;100.00
22930;BME280;11630;42.660;23.292;2022-10-16T01:58:17;68498.58;;;8.68;100.00
22930;BME280;11630;42.660;23.292;2022-10-16T02:00:48;68492.08;;;8.67;100.00
22930;BME280;11630;42.660;23.292;2022-10-16T02:03:21;68477.17;;;8.57;100.00
22930;BME280;11630;42.660;23.292;2022-10-16T02:05:57;68480.14;;;8.56;100.00
22930;BME280;11630;42.660;23.292;2022-10-16T02:08:29;68483.39;;;8.59;100.00
22930;BME280;11630;42.660;23.292;2022-10-16T02:11:01;68463.33;;;8.43;100.00
22930;BME280;11630;42.660;23.292;2022-10-16T02:13:41;68470.66;;;8.51;100.00
22930;BME280;11630;42.660;23.292;2022-10-16T02:16:11;68477.14;;;8.52;100.00
22930;BME280;11630;42.660;23.292;2022-10-16T02:18:43;68495.33;;;8.65;100.00
22930;BME280;11630;42.660;23.292;2022-10-16T02:21:17;68485.30;;;8.62;100.00
22930;BME280;11630;42.660;23.292;2022-10-16T02:24:02;68468.47;;;8.44;100.00
22930;BME280;11630;42.660;23.292;2022-10-16T02:26:42;68470.63;;;8.43;100.00
22930;BME280;11630;42.660;23.292;2022-10-16T02:29:12;68460.88;;;8.40;100.00
22930;BME280;11630;42.660;23.292;2022-10-16T02:31:44;68472.25;;;8.45;100.00
22930;BME280;11630;42.660;23.292;2022-10-16T02:34:15;68458.44;;;8.39;100.00
22930;BME280;11630;42.660;23.292;2022-10-16T02:36:48;68473.63;;;8.50;100.00
22930;BME280;11630;42.660;23.292;2022-10-16T02:39:21;68468.74;;;8.45;100.00
22930;BME280;11630;42.660;23.292;2022-10-16T02:41:58;68482.84;;;8.56;100.00
22930;BME280;11630;42.660;23.292;2022-10-16T02:44:28;68487.21;;;8.62;100.00
22930;BME280;11630;42.660;23.292;2022-10-16T02:46:58;68470.63;;;8.46;100.00
22930;BME280;11630;42.660;23.292;2022-10-16T02:49:29;68468.73;;;8.43;100.00
22930;BME280;11630;42.660;23.292;2022-10-16T02:52:00;68463.59;;;8.42;100.00
22930;BME280;11630;42.660;23.292;2022-10-16T02:54:31;68458.44;;;8.36;100.00
22930;BME280;11630;42.660;23.292;2022-10-16T02:57:02;68464.68;;;8.43;100.00
22930;BME280;11630;42.660;23.292;2022-10-16T02:59:33;68472.55;;;8.51;100.00
22930;BME280;11630;42.660;23.292;2022-10-16T03:02:04;68488.28;;;8.63;100.00
22930;BME280;11630;42.660;23.292;2022-10-16T03:04:35;68447.30;;;8.27;100.00
22930;BME280;11630;42.660;23.292;2022-10-16T03:07:06;68455.73;;;8.36;100.00
22930;BME280;11630;42.660;23.292;2022-10-16T03:09:37;68463.59;;;8.42;100.00
22930;BME280;11630;42.660;23.292;2022-10-16T03:12:07;68436.17;;;8.18;100.00
22930;BME280;11630;42.660;23.292;2022-10-16T03:14:39;68445.13;;;8.25;100.00
22930;BME280;11630;42.660;23.292;2022-10-16T03:17:11;68447.30;;;8.25;100.00
22930;BME280;11630;42.660;23.292;2022-10-16T03:19:41;68436.44;;;8.17;100.00
22930;BME280;11630;42.660;23.292;2022-10-16T03:22:13;68467.13;;;8.44;100.00
22930;BME280;11630;42.660;23.292;2022-10-16T03:24:43;68473.91;;;8.54;100.00
22930;BME280;11630;42.660;23.292;2022-10-16T03:27:14;68482.59;;;8.57;100.00
22930;BME280;11630;42.660;23.292;2022-10-16T03:29:45;68479.32;;;8.54;100.00
22930;BME280;11630;42.660;23.292;2022-10-16T03:32:17;68456.78;;;8.32;100.00
22930;BME280;11630;42.660;23.292;2022-10-16T03:34:47;68449.45;;;8.24;100.00
22930;BME280;11630;42.660;23.292;2022-10-16T03:37:18;68417.42;;;8.00;100.00
22930;BME280;11630;42.660;23.292;2022-10-16T03:39:49;68426.11;;;8.05;100.00
22930;BME280;11630;42.660;23.292;2022-10-16T03:42:20;68404.38;;;7.85;100.00
22930;BME280;11630;42.660;23.292;2022-10-16T03:44:51;68392.98;;;7.72;100.00
22930;BME280;11630;42.660;23.292;2022-10-16T03:47:21;68387.84;;;7.71;100.00
22930;BME280;11630;42.660;23.292;2022-10-16T03:49:52;68370.78;;;7.60;100.00
22930;BME280;11630;42.660;23.292;2022-10-16T03:52:23;68381.34;;;7.65;100.00
22930;BME280;11630;42.660;23.292;2022-10-16T03:54:55;68366.41;;;7.51;100.00
22930;BME280;11630;42.660;23.292;2022-10-16T03:57:25;68363.19;;;7.53;100.00
22930;BME280;11630;42.660;23.292;2022-10-16T03:59:56;68374.82;;;7.57;100.00
22930;BME280;11630;42.660;23.292;2022-10-16T04:02:26;68367.23;;;7.53;100.00
22930;BME280;11630;42.660;23.292;2022-10-16T04:04:57;68385.95;;;7.68;100.00
22930;BME280;11630;42.660;23.292;2022-10-16T04:07:28;68395.73;;;7.80;100.00
22930;BME280;11630;42.660;23.292;2022-10-16T04:09:59;68418.78;;;8.02;100.00
22930;BME280;11630;42.660;23.292;2022-10-16T04:12:30;68427.46;;;8.08;100.00
22930;BME280;11630;42.660;23.292;2022-10-16T04:15:01;68444.56;;;8.22;100.00
22930;BME280;11630;42.660;23.292;2022-10-16T04:17:32;68430.18;;;8.13;100.00
22930;BME280;11630;42.660;23.292;2022-10-16T04:20:05;68454.89;;;8.29;100.00
22930;BME280;11630;42.660;23.292;2022-10-16T04:22:37;68449.75;;;8.28;100.00
22930;BME280;11630;42.660;23.292;2022-10-16T04:25:08;68444.03;;;8.22;100.00
22930;BME280;11630;42.660;23.292;2022-10-16T04:27:40;68464.38;;;8.39;100.00
22930;BME280;11630;42.660;23.292;2022-10-16T04:30:10;68434.83;;;8.18;100.00
22930;BME280;11630;42.660;23.292;2022-10-16T04:32:48;68438.89;;;8.21;100.00
22930;BME280;11630;42.660;23.292;2022-10-16T04:35:19;68432.61;;;8.11;100.00
22930;BME280;11630;42.660;23.292;2022-10-16T04:37:48;68441.86;;;8.20;100.00
22930;BME280;11630;42.660;23.292;2022-10-16T04:40:21;68457.61;;;8.34;100.00
22930;BME280;11630;42.660;23.292;2022-10-16T04:42:51;68463.30;;;8.38;100.00
22930;BME280;11630;42.660;23.292;2022-10-16T04:45:22;68446.21;;;8.24;100.00
22930;BME280;11630;42.660;23.292;2022-10-16T04:47:56;68455.70;;;8.31;100.00
22930;BME280;11630;42.660;23.292;2022-10-16T04:50:25;68452.98;;;8.31;100.00
22930;BME280;11630;42.660;23.292;2022-10-16T04:52:55;68455.17;;;8.33;100.00
22930;BME280;11630;42.660;23.292;2022-10-16T04:55:26;68449.48;;;8.29;100.00
22930;BME280;11630;42.660;23.292;2022-10-16T04:57:57;68452.71;;;8.27;100.00
22930;BME280;11630;42.660;23.292;2022-10-16T05:00:27;68453.25;;;8.28;100.00
22930;BME280;11630;42.660;23.292;2022-10-16T05:02:57;68451.35;;;8.25;100.00
22930;BME280;11630;42.660;23.292;2022-10-16T05:05:29;68448.09;;;8.24;100.00
22930;BME280;11630;42.660;23.292;2022-10-16T05:08:01;68460.84;;;8.35;100.00
22930;BME280;11630;42.660;23.292;2022-10-16T05:10:32;68458.17;;;8.40;100.00
22930;BME280;11630;42.660;23.292;2022-10-16T05:13:03;68464.68;;;8.43;100.00
22930;BME280;11630;42.660;23.292;2022-10-16T05:15:33;68451.10;;;8.31;100.00
22930;BME280;11630;42.660;23.292;2022-10-16T05:18:05;68426.64;;;8.08;100.00
22930;BME280;11630;42.660;23.292;2022-10-16T05:20:36;68421.79;;;8.06;100.00
22930;BME280;11630;42.660;23.292;2022-10-16T05:23:08;68458.15;;;8.37;100.00
22930;BME280;11630;42.660;23.292;2022-10-16T05:25:40;68467.66;;;8.44;100.00
22930;BME280;11630;42.660;23.292;2022-10-16T05:28:11;68470.92;;;8.50;100.00
22930;BME280;11630;42.660;23.292;2022-10-16T05:30:42;68506.74;;;8.78;100.00
22930;BME280;11630;42.660;23.292;2022-10-16T05:33:13;68517.33;;;8.89;100.00
22930;BME280;11630;42.660;23.292;2022-10-16T05:35:44;68532.56;;;9.08;100.00
22930;BME280;11630;42.660;23.292;2022-10-16T05:38:16;68549.13;;;9.21;100.00
22930;BME280;11630;42.660;23.292;2022-10-16T05:40:52;68577.92;;;9.45;100.00
22930;BME280;11630;42.660;23.292;2022-10-16T05:43:23;68587.15;;;9.51;100.00
22930;BME280;11630;42.660;23.292;2022-10-16T05:45:56;68589.59;;;9.55;100.00
22930;BME280;11630;42.660;23.292;2022-10-16T05:48:26;68593.41;;;9.63;100.00
22930;BME280;11630;42.660;23.292;2022-10-16T05:51:04;68601.56;;;9.71;100.00
22930;BME280;11630;42.660;23.292;2022-10-16T05:53:35;68592.03;;;9.53;100.00
22930;BME280;11630;42.660;23.292;2022-10-16T05:56:07;68567.86;;;9.35;100.00
22930;BME280;11630;42.660;23.292;2022-10-16T05:58:38;68540.95;;;9.07;100.00
22930;BME280;11630;42.660;23.292;2022-10-16T06:01:14;68543.14;;;9.14;100.00
22930;BME280;11630;42.660;23.292;2022-10-16T06:03:43;68590.41;;;9.54;100.00
22930;BME280;11630;42.660;23.292;2022-10-16T06:06:17;68619.49;;;9.82;100.00
22930;BME280;11630;42.660;23.292;2022-10-16T06:08:47;68639.89;;;9.99;100.00
22930;BME280;11630;42.660;23.292;2022-10-16T06:11:21;68656.47;;;10.11;100.00
22930;BME280;11630;42.660;23.292;2022-10-16T06:13:53;68686.39;;;10.48;100.00
22930;BME280;11630;42.660;23.292;2022-10-16T06:16:26;68713.59;;;10.71;100.00
22930;BME280;11630;42.660;23.292;2022-10-16T06:18:57;68725.29;;;10.82;100.00
22930;BME280;11630;42.660;23.292;2022-10-16T06:21:29;68766.91;;;11.17;100.00
22930;BME280;11630;42.660;23.292;2022-10-16T06:23:59;68746.78;;;10.96;100.00
22930;BME280;11630;42.660;23.292;2022-10-16T06:26:31;68771.81;;;11.21;100.00
22930;BME280;11630;42.660;23.292;2022-10-16T06:29:02;68791.95;;;11.37;100.00
22930;BME280;11630;42.660;23.292;2022-10-16T06:31:32;68811.56;;;11.55;100.00
22930;BME280;11630;42.660;23.292;2022-10-16T06:34:02;68801.52;;;11.52;100.00
22930;BME280;11630;42.660;23.292;2022-10-16T06:36:35;68830.38;;;11.76;100.00
22930;BME280;11630;42.660;23.292;2022-10-16T06:39:06;68912.62;;;12.48;100.00
22930;BME280;11630;42.660;23.292;2022-10-16T06:41:36;68885.09;;;12.25;100.00
22930;BME280;11630;42.660;23.292;2022-10-16T06:44:08;68854.04;;;11.99;100.00
22930;BME280;11630;42.660;23.292;2022-10-16T06:46:40;68893.53;;;12.28;100.00
22930;BME280;11630;42.660;23.292;2022-10-16T06:49:11;68907.71;;;12.41;100.00
22930;BME280;11630;42.660;23.292;2022-10-16T06:51:42;68849.42;;;11.96;100.00
22930;BME280;11630;42.660;23.292;2022-10-16T06:54:14;68914.52;;;12.59;100.00
22930;BME280;11630;42.660;23.292;2022-10-16T06:56:45;68889.45;;;12.28;100.00
22930;BME280;11630;42.660;23.292;2022-10-16T06:59:16;68843.16;;;11.86;100.00
22930;BME280;11630;42.660;23.292;2022-10-16T07:01:47;68878.83;;;12.18;100.00
22930;BME280;11630;42.660;23.292;2022-10-16T07:04:18;68809.11;;;11.54;100.00
22930;BME280;11630;42.660;23.292;2022-10-16T07:06:49;68859.22;;;11.95;100.00
22930;BME280;11630;42.660;23.292;2022-10-16T07:09:20;68946.13;;;12.85;100.00
22930;BME280;11630;42.660;23.292;2022-10-16T07:11:51;68934.41;;;12.63;100.00
22930;BME280;11630;42.660;23.292;2022-10-16T07:14:22;68933.87;;;12.70;100.00
22930;BME280;11630;42.660;23.292;2022-10-16T07:16:53;68989.48;;;13.21;100.00
22930;BME280;11630;42.660;23.292;2022-10-16T07:19:23;69036.65;;;13.63;100.00
22930;BME280;11630;42.660;23.292;2022-10-16T07:21:54;68990.58;;;13.19;100.00
22930;BME280;11630;42.660;23.292;2022-10-16T07:24:25;69053.00;;;13.82;100.00
22930;BME280;11630;42.660;23.292;2022-10-16T07:26:55;69113.86;;;14.34;100.00
22930;BME280;11630;42.660;23.292;2022-10-16T07:29:30;69110.33;;;14.27;100.00
22930;BME280;11630;42.660;23.292;2022-10-16T07:32:01;69089.03;;;14.00;100.00
22930;BME280;11630;42.660;23.292;2022-10-16T07:34:31;69182.67;;;14.92;100.00
22930;BME280;11630;42.660;23.292;2022-10-16T07:37:02;69170.09;;;14.88;100.00
22930;BME280;11630;42.660;23.292;2022-10-16T07:39:33;69244.70;;;15.44;100.00
22930;BME280;11630;42.660;23.292;2022-10-16T07:42:04;69268.70;;;15.76;99.62
22930;BME280;11630;42.660;23.292;2022-10-16T07:44:35;69224.73;;;15.33;98.58
22930;BME280;11630;42.660;23.292;2022-10-16T07:47:06;69171.75;;;14.82;100.00
22930;BME280;11630;42.660;23.292;2022-10-16T07:49:37;69176.92;;;14.88;100.00
22930;BME280;11630;42.660;23.292;2022-10-16T07:52:07;69261.61;;;15.65;98.39
22930;BME280;11630;42.660;23.292;2022-10-16T07:54:38;69288.91;;;15.97;96.08
22930;BME280;11630;42.660;23.292;2022-10-16T07:57:09;69341.98;;;16.38;93.18
22930;BME280;11630;42.660;23.292;2022-10-16T07:59:40;69319.56;;;16.13;93.06
22930;BME280;11630;42.660;23.292;2022-10-16T08:02:10;69398.02;;;16.90;91.36
22930;BME280;11630;42.660;23.292;2022-10-16T08:04:42;69402.16;;;16.85;91.10
22930;BME280;11630;42.660;23.292;2022-10-16T08:07:13;69408.70;;;16.98;90.83
22930;BME280;11630;42.660;23.292;2022-10-16T08:09:44;69421.27;;;17.12;87.78
22930;BME280;11630;42.660;23.292;2022-10-16T08:12:15;69443.17;;;17.32;86.36
22930;BME280;11630;42.660;23.292;2022-10-16T08:14:46;69442.34;;;17.33;86.62
22930;BME280;11630;42.660;23.292;2022-10-16T08:17:17;69419.06;;;17.13;87.12
22930;BME280;11630;42.660;23.292;2022-10-16T08:19:47;69476.30;;;17.59;86.47
22930;BME280;11630;42.660;23.292;2022-10-16T08:22:18;69405.41;;;16.95;87.17
22930;BME280;11630;42.660;23.292;2022-10-16T08:24:49;69478.48;;;17.63;83.91
22930;BME280;11630;42.660;23.292;2022-10-16T08:27:20;69537.33;;;18.13;82.56
22930;BME280;11630;42.660;23.292;2022-10-16T08:29:50;69559.80;;;18.36;80.50
22930;BME280;11630;42.660;23.292;2022-10-16T08:32:21;69609.92;;;18.77;77.13
22930;BME280;11630;42.660;23.292;2022-10-16T08:34:52;69544.71;;;18.26;77.36
22930;BME280;11630;42.660;23.292;2022-10-16T08:37:22;69514.86;;;18.00;78.36
22930;BME280;11630;42.660;23.292;2022-10-16T08:39:53;69598.14;;;18.68;77.92
22930;BME280;11630;42.660;23.292;2022-10-16T08:50:38;69699.03;;;19.52;70.84
22930;BME280;11630;42.660;23.292;2022-10-16T08:53:15;69679.82;;;19.42;70.86
22930;BME280;11630;42.660;23.292;2022-10-16T08:55:46;69740.43;;;19.91;68.38
22930;BME280;11630;42.660;23.292;2022-10-16T08:58:22;69754.91;;;20.15;65.73
22930;BME280;11630;42.660;23.292;2022-10-16T09:00:57;69781.00;;;20.35;64.66
22930;BME280;11630;42.660;23.292;2022-10-16T09:06:26;69696.55;;;19.56;64.58
22930;BME280;11630;42.660;23.292;2022-10-16T09:09:06;69589.13;;;18.56;66.50
22930;BME280;11630;42.660;23.292;2022-10-16T09:11:45;69669.95;;;19.33;63.16
22930;BME280;11630;42.660;23.292;2022-10-16T09:17:03;69690.80;;;19.47;65.03
22930;BME280;11630;42.660;23.292;2022-10-16T09:19:37;69763.95;;;20.24;61.24
22930;BME280;11630;42.660;23.292;2022-10-16T09:22:12;69645.77;;;19.24;61.84
22930;BME280;11630;42.660;23.292;2022-10-16T09:24:42;69562.80;;;18.37;62.37
22930;BME280;11630;42.660;23.292;2022-10-16T09:27:14;69623.31;;;18.98;62.38
22930;BME280;11630;42.660;23.292;2022-10-16T09:29:46;69701.98;;;19.66;59.69
22930;BME280;11630;42.660;23.292;2022-10-16T09:32:20;69758.23;;;20.15;56.76
22930;BME280;11630;42.660;23.292;2022-10-16T09:34:53;69678.69;;;19.46;57.39
22930;BME280;11630;42.660;23.292;2022-10-16T09:37:25;69721.43;;;19.87;58.36
22930;BME280;11630;42.660;23.292;2022-10-16T09:39:56;69713.75;;;19.80;58.08
22930;BME280;11630;42.660;23.292;2022-10-16T09:42:31;69728.08;;;19.83;57.54
22930;BME280;11630;42.660;23.292;2022-10-16T09:45:00;69769.82;;;20.13;57.47
22930;BME280;11630;42.660;23.292;2022-10-16T09:47:35;69791.67;;;20.46;56.21
22930;BME280;11630;42.660;23.292;2022-10-16T09:50:13;69839.78;;;20.78;54.75
22930;BME280;11630;42.660;23.292;2022-10-16T09:52:36;69928.09;;;21.68;51.32
22930;BME280;11630;42.660;23.292;2022-10-16T09:55:17;69986.67;;;22.12;48.90
22930;BME280;11630;42.660;23.292;2022-10-16T09:57:53;69986.37;;;22.16;48.55
22930;BME280;11630;42.660;23.292;2022-10-16T10:00:26;69862.50;;;21.05;49.82
22930;BME280;11630;42.660;23.292;2022-10-16T10:02:56;69879.52;;;21.23;49.72
22930;BME280;11630;42.660;23.292;2022-10-16T10:05:29;69951.98;;;21.91;47.90
22930;BME280;11630;42.660;23.292;2022-10-16T10:08:03;69947.34;;;21.85;48.13
22930;BME280;11630;42.660;23.292;2022-10-16T10:10:37;70009.80;;;22.28;46.82
22930;BME280;11630;42.660;23.292;2022-10-16T10:13:16;70009.59;;;22.19;47.42
22930;BME280;11630;42.660;23.292;2022-10-16T10:15:41;69862.59;;;20.95;48.77
22930;BME280;11630;42.660;23.292;2022-10-16T10:18:18;69899.06;;;21.32;47.52
22930;BME280;11630;42.660;23.292;2022-10-16T10:21:02;70039.15;;;22.61;44.44
22930;BME280;11630;42.660;23.292;2022-10-16T10:23:33;70118.34;;;23.30;43.64
22930;BME280;11630;42.660;23.292;2022-10-16T10:26:08;70090.28;;;23.10;43.23
22930;BME280;11630;42.660;23.292;2022-10-16T10:29:42;70069.17;;;22.82;43.58
22930;BME280;11630;42.660;23.292;2022-10-16T10:31:42;70054.25;;;22.76;41.81
22930;BME280;11630;42.660;23.292;2022-10-16T10:36:45;70042.45;;;22.64;43.08
22930;BME280;11630;42.660;23.292;2022-10-16T10:39:25;69878.08;;;21.28;45.38
22930;BME280;11630;42.660;23.292;2022-10-16T10:47:47;70160.14;;;23.68;41.52
22930;BME280;11630;42.660;23.292;2022-10-16T10:50:48;70181.08;;;23.87;39.09
22930;BME280;11630;42.660;23.292;2022-10-16T10:53:36;70181.08;;;23.87;39.09
22930;BME280;11630;42.660;23.292;2022-10-16T10:56:23;70281.30;;;24.72;38.36
22930;BME280;11630;42.660;23.292;2022-10-16T11:01:36;70254.87;;;24.51;37.56
22930;BME280;11630;42.660;23.292;2022-10-16T11:04:35;70216.59;;;24.15;37.91
22930;BME280;11630;42.660;23.292;2022-10-16T11:07:14;70325.67;;;25.08;36.95
22930;BME280;11630;42.660;23.292;2022-10-16T11:09:45;70295.13;;;25.03;36.21
22930;BME280;11630;42.660;23.292;2022-10-16T11:12:21;70313.55;;;24.97;35.97
22930;BME280;11630;42.660;23.292;2022-10-16T11:15:02;70323.95;;;25.14;34.72
22930;BME280;11630;42.660;23.292;2022-10-16T11:17:35;70310.66;;;25.10;34.80
22930;BME280;11630;42.660;23.292;2022-10-16T11:20:13;70331.27;;;25.32;34.20
22930;BME280;11630;42.660;23.292;2022-10-16T11:23:10;70282.27;;;24.85;33.68
22930;BME280;11630;42.660;23.292;2022-10-16T11:25:39;70144.41;;;23.60;36.22
22930;BME280;11630;42.660;23.292;2022-10-16T11:28:15;70013.00;;;22.44;39.24
22930;BME280;11630;42.660;23.292;2022-10-16T11:30:52;70205.91;;;24.02;36.16
22930;BME280;11630;42.660;23.292;2022-10-16T11:33:39;70247.29;;;24.58;35.70
22930;BME280;11630;42.660;23.292;2022-10-16T11:38:59;70340.70;;;25.33;32.86
22930;BME280;11630;42.660;23.292;2022-10-16T11:41:37;70399.86;;;25.69;32.15
22930;BME280;11630;42.660;23.292;2022-10-16T11:44:16;70319.64;;;25.00;32.32
22930;BME280;11630;42.660;23.292;2022-10-16T11:46:48;70123.27;;;23.39;34.43
22930;BME280;11630;42.660;23.292;2022-10-16T11:49:21;70268.14;;;24.55;33.82
22930;BME280;11630;42.660;23.292;2022-10-16T11:52:11;70336.34;;;25.27;32.81
22930;BME280;11630;42.660;23.292;2022-10-16T11:55:57;70381.41;;;25.51;32.96
22930;BME280;11630;42.660;23.292;2022-10-16T11:57:53;70440.95;;;26.05;32.87
22930;BME280;11630;42.660;23.292;2022-10-16T12:00:24;70474.27;;;26.39;31.89
22930;BME280;11630;42.660;23.292;2022-10-16T12:08:23;70457.47;;;26.43;30.13
22930;BME280;11630;42.660;23.292;2022-10-16T12:10:53;70479.65;;;26.53;29.74
22930;BME280;11630;42.660;23.292;2022-10-16T12:13:39;70522.78;;;26.82;30.03
22930;BME280;11630;42.660;23.292;2022-10-16T12:18:45;70562.55;;;27.16;30.57
22930;BME280;11630;42.660;23.292;2022-10-16T12:21:17;70408.81;;;25.91;32.20
22930;BME280;11630;42.660;23.292;2022-10-16T12:23:55;70352.07;;;25.37;35.19
22930;BME280;11630;42.660;23.292;2022-10-16T12:26:28;70442.45;;;26.19;32.03
22930;BME280;11630;42.660;23.292;2022-10-16T12:31:54;70465.38;;;26.36;36.68
22930;BME280;11630;42.660;23.292;2022-10-16T12:34:29;70402.39;;;25.91;34.01
22930;BME280;11630;42.660;23.292;2022-10-16T12:37:11;70372.20;;;25.54;40.90
22930;BME280;11630;42.660;23.292;2022-10-16T12:39:42;70317.06;;;25.09;36.54
22930;BME280;11630;42.660;23.292;2022-10-16T12:44:59;70231.27;;;24.19;37.95
22930;BME280;11630;42.660;23.292;2022-10-16T12:50:23;70207.81;;;24.04;41.28
22930;BME280;11630;42.660;23.292;2022-10-16T12:52:40;70137.33;;;23.46;47.02
22930;BME280;11630;42.660;23.292;2022-10-16T12:55:16;70009.20;;;22.35;46.42
22930;BME280;11630;42.660;23.292;2022-10-16T12:58:05;70038.58;;;22.63;45.41
22930;BME280;11630;42.660;23.292;2022-10-16T13:00:56;70083.50;;;22.90;44.45
22930;BME280;11630;42.660;23.292;2022-10-16T13:03:46;70055.09;;;22.75;47.57
22930;BME280;11630;42.660;23.292;2022-10-16T13:06:27;69985.01;;;22.13;47.67
22930;BME280;11630;42.660;23.292;2022-10-16T13:12:07;69939.34;;;21.79;46.11
22930;BME280;11630;42.660;23.292;2022-10-16T13:17:28;69793.31;;;20.47;47.04
22930;BME280;11630;42.660;23.292;2022-10-16T13:28:29;69708.09;;;19.59;51.74
22930;BME280;11630;42.660;23.292;2022-10-16T13:31:00;69683.08;;;19.47;53.25
22930;BME280;11630;42.660;23.292;2022-10-16T13:33:50;69675.39;;;19.43;52.28
22930;BME280;11630;42.660;23.292;2022-10-16T13:36:07;69674.33;;;19.37;53.98
22930;BME280;11630;42.660;23.292;2022-10-16T13:38:38;69660.09;;;19.22;49.73
22930;BME280;11630;42.660;23.292;2022-10-16T13:41:17;69661.77;;;19.18;54.28
22930;BME280;11630;42.660;23.292;2022-10-16T13:43:51;69647.44;;;19.18;53.77
22930;BME280;11630;42.660;23.292;2022-10-16T13:46:22;69639.77;;;19.13;54.33
22930;BME280;11630;42.660;23.292;2022-10-16T13:49:03;69634.63;;;18.95;51.02
22930;BME280;11630;42.660;23.292;2022-10-16T13:51:34;69617.91;;;18.78;52.93
22930;BME280;11630;42.660;23.292;2022-10-16T13:54:07;69594.55;;;18.73;52.33
22930;BME280;11630;42.660;23.292;2022-10-16T13:56:38;69601.66;;;18.82;53.59
22930;BME280;11630;42.660;23.292;2022-10-16T13:59:42;69580.89;;;18.51;51.72
22930;BME280;11630;42.660;23.292;2022-10-16T14:01:46;69581.69;;;18.60;51.79
22930;BME280;11630;42.660;23.292;2022-10-16T14:04:18;69555.69;;;18.33;52.33
22930;BME280;11630;42.660;23.292;2022-10-16T14:06:49;69589.64;;;18.64;56.07
22930;BME280;11630;42.660;23.292;2022-10-16T14:09:30;69618.41;;;18.86;63.00
22930;BME280;11630;42.660;23.292;2022-10-16T14:12:03;69615.92;;;18.88;57.42
22930;BME280;11630;42.660;23.292;2022-10-16T14:14:42;69608.83;;;18.76;55.53
22930;BME280;11630;42.660;23.292;2022-10-16T14:17:22;69595.38;;;18.70;58.97
22930;BME280;11630;42.660;23.292;2022-10-16T14:19:56;69600.38;;;18.65;57.76
22930;BME280;11630;42.660;23.292;2022-10-16T14:22:31;69602.53;;;18.69;58.56
22930;BME280;11630;42.660;23.292;2022-10-16T14:25:26;69597.57;;;18.72;60.78
22930;BME280;11630;42.660;23.292;2022-10-16T14:27:37;69577.06;;;18.50;54.39
22930;BME280;11630;42.660;23.292;2022-10-16T14:30:19;69530.77;;;18.07;52.93
22930;BME280;11630;42.660;23.292;2022-10-16T14:32:58;69514.84;;;18.02;54.66